Time;durP1;ratioP1;P1;durP2;ratioP2;P2;SDS_P1;SDS_P2;PMS_P1;PMS_P2;Temp;Humidity;BMP_temperature;BMP_pressure;BME280_temperature;BME280_humidity;BME280_pressure;Samples;Min_cycle;Max_cycle;Signal;HPM_P1;HPM_P2
2022/11/19 00:02:26;;;;;;;15.20;12.57;;;-1.80;99.90;;;;;;5002268;28;20209;-87
2022/11/19 00:04:54;;;;;;;18.20;13.40;;;-1.60;99.90;;;;;;5007241;28;20234;-87
2022/11/19 00:07:28;;;;;;;17.83;13.50;;;-1.60;99.90;;;;;;5011655;28;20206;-88
2022/11/19 00:09:57;;;;;;;18.10;13.38;;;-1.60;99.90;;;;;;5017502;28;20193;-86
2022/11/19 00:15:11;;;;;;;23.30;15.63;;;-1.50;99.90;;;;;;5004243;28;20206;-87
2022/11/19 00:17:40;;;;;;;20.27;14.32;;;-1.30;99.90;;;;;;5010471;28;20258;-82
2022/11/19 00:20:08;;;;;;;19.13;14.68;;;-1.00;99.90;;;;;;5011127;28;20209;-83
2022/11/19 00:22:35;;;;;;;16.10;13.88;;;-1.00;99.90;;;;;;5008862;28;20222;-88
2022/11/19 00:25:04;;;;;;;17.67;14.70;;;-1.00;99.90;;;;;;5000835;28;20230;-87
2022/11/19 00:27:32;;;;;;;18.60;14.93;;;-1.00;99.90;;;;;;5015610;28;20622;-86
2022/11/19 00:30:00;;;;;;;20.38;14.93;;;-0.90;99.90;;;;;;4991571;28;20261;-86
2022/11/19 00:32:30;;;;;;;21.50;15.63;;;-0.60;99.90;;;;;;5001217;28;20210;-89
2022/11/19 00:35:00;;;;;;;20.33;14.98;;;-0.70;99.90;;;;;;5009462;28;20198;-86
2022/11/19 00:37:28;;;;;;;22.08;14.98;;;-0.60;99.90;;;;;;5012718;28;20222;-88
2022/11/19 00:39:55;;;;;;;22.40;15.60;;;-0.50;99.90;;;;;;5013148;28;20257;-86
2022/11/19 00:42:23;;;;;;;21.15;14.25;;;-0.60;99.90;;;;;;5013195;28;20236;-87
2022/11/19 00:44:51;;;;;;;19.75;14.75;;;-0.70;99.90;;;;;;5009323;28;20274;-85
2022/11/19 00:47:20;;;;;;;20.45;14.27;;;-0.60;99.90;;;;;;5005854;28;20521;-85
2022/11/19 00:49:47;;;;;;;17.75;13.50;;;-0.80;99.90;;;;;;4994944;28;20214;-84
2022/11/19 00:52:14;;;;;;;20.08;15.13;;;-0.90;99.90;;;;;;5008366;28;20265;-87
2022/11/19 00:54:43;;;;;;;21.30;14.88;;;-0.90;99.90;;;;;;5015229;28;20225;-81
2022/11/19 00:57:10;;;;;;;25.17;15.30;;;-1.00;99.90;;;;;;5020773;28;20194;-86
2022/11/19 00:59:37;;;;;;;19.77;14.82;;;-0.80;99.90;;;;;;5012962;28;20208;-87
2022/11/19 01:02:11;;;;;;;22.30;16.02;;;-0.80;99.90;;;;;;4991135;28;20194;-81
2022/11/19 01:04:38;;;;;;;20.98;15.20;;;-0.60;99.90;;;;;;5011348;28;20249;-85
2022/11/19 01:07:06;;;;;;;22.90;16.20;;;-0.60;99.90;;;;;;4989193;28;20206;-85
2022/11/19 01:09:35;;;;;;;21.00;14.48;;;-0.40;99.90;;;;;;5005678;28;20381;-87
2022/11/19 01:12:03;;;;;;;19.17;13.95;;;-0.50;99.90;;;;;;5003457;28;20426;-84
2022/11/19 01:14:31;;;;;;;19.48;14.68;;;-0.40;99.90;;;;;;5003481;28;20467;-85
2022/11/19 01:16:58;;;;;;;19.63;14.25;;;-0.40;99.90;;;;;;5004835;28;20286;-86
2022/11/19 01:19:26;;;;;;;21.65;14.57;;;-0.50;99.90;;;;;;5010040;28;20266;-87
2022/11/19 01:21:53;;;;;;;17.85;14.55;;;-0.60;99.90;;;;;;5007731;28;20210;-81
2022/11/19 01:24:26;;;;;;;20.73;15.10;;;-0.70;99.90;;;;;;5011527;28;20277;-85
2022/11/19 01:26:54;;;;;;;17.60;13.82;;;-0.90;99.90;;;;;;5007696;28;20217;-84
2022/11/19 01:29:25;;;;;;;17.58;13.23;;;-0.80;99.90;;;;;;4988045;28;20234;-87
2022/11/19 01:31:52;;;;;;;20.02;14.20;;;-0.70;99.90;;;;;;5007249;28;20213;-86
2022/11/19 01:34:18;;;;;;;25.88;14.20;;;-0.60;99.90;;;;;;4988109;28;20263;-85
2022/11/19 01:36:49;;;;;;;22.27;14.18;;;-0.80;99.90;;;;;;4994135;28;20206;-85
2022/11/19 01:39:18;;;;;;;21.30;13.25;;;-0.60;99.90;;;;;;5006545;28;20550;-83
2022/11/19 01:41:46;;;;;;;17.88;14.30;;;-0.40;99.90;;;;;;5006664;28;20703;-84
2022/11/19 01:44:50;;;;;;;27.98;14.70;;;-0.40;99.90;;;;;;5006532;28;20577;-86
2022/11/19 01:47:18;;;;;;;21.02;15.23;;;-0.60;99.90;;;;;;4985568;28;20647;-81
2022/11/19 01:49:46;;;;;;;18.55;14.35;;;-0.60;99.90;;;;;;5008128;28;20206;-83
2022/11/19 01:52:13;;;;;;;19.15;14.82;;;-0.80;99.90;;;;;;5005087;28;20390;-85
2022/11/19 01:54:49;;;;;;;20.58;13.95;;;-0.80;99.90;;;;;;5006183;28;20210;-85
2022/11/19 01:57:18;;;;;;;21.83;12.40;;;-0.80;99.90;;;;;;4997396;28;20219;-86
2022/11/19 01:59:50;;;;;;;20.70;13.45;;;-0.70;99.90;;;;;;5006004;28;20210;-85
2022/11/19 02:02:23;;;;;;;18.73;13.88;;;-0.60;99.90;;;;;;5011530;28;20242;-85
2022/11/19 02:04:52;;;;;;;21.02;15.85;;;-0.40;99.90;;;;;;4993116;28;20264;-87
2022/11/19 02:07:25;;;;;;;23.23;15.30;;;-0.30;99.90;;;;;;5007610;28;20234;-85
2022/11/19 02:09:55;;;;;;;20.13;15.05;;;-0.30;99.90;;;;;;5004189;28;20257;-79
2022/11/19 02:12:46;;;;;;;19.85;14.20;;;-0.30;99.90;;;;;;5008481;28;20205;-80
2022/11/19 02:15:41;;;;;;;19.10;14.90;;;-0.30;99.90;;;;;;4986631;28;20206;-84
2022/11/19 02:18:11;;;;;;;20.95;15.35;;;-0.30;99.90;;;;;;5002763;28;20193;-85
2022/11/19 02:20:51;;;;;;;22.52;14.25;;;-0.20;99.90;;;;;;5012842;28;20277;-85
2022/11/19 02:23:56;;;;;;;26.50;14.05;;;-0.20;99.90;;;;;;4990212;28;20206;-83
2022/11/19 02:27:00;;;;;;;20.08;12.80;;;-0.20;99.90;;;;;;4996565;28;20206;-83
2022/11/19 02:29:30;;;;;;;19.65;14.88;;;-0.30;99.90;;;;;;5003396;28;20281;-81
2022/11/19 02:32:07;;;;;;;23.45;16.50;;;-0.50;99.90;;;;;;5008866;28;20258;-85
2022/11/19 02:34:52;;;;;;;23.23;15.43;;;-0.40;99.90;;;;;;5006237;28;20321;-81
2022/11/19 02:37:35;;;;;;;22.63;15.88;;;-0.40;99.90;;;;;;5006599;28;20206;-84
2022/11/19 02:40:11;;;;;;;21.38;14.13;;;-0.50;99.90;;;;;;4997084;28;20222;-83
2022/11/19 02:42:58;;;;;;;22.23;13.80;;;-0.40;99.90;;;;;;5005891;28;20238;-82
2022/11/19 02:45:40;;;;;;;19.67;14.10;;;-0.50;99.90;;;;;;4988637;28;20460;-82
2022/11/19 02:48:14;;;;;;;17.00;13.95;;;-0.20;99.90;;;;;;5007819;28;20191;-82
2022/11/19 02:50:53;;;;;;;18.55;14.68;;;-0.30;99.90;;;;;;5004338;28;20558;-78
2022/11/19 02:53:22;;;;;;;19.88;14.30;;;-0.30;99.90;;;;;;5004249;28;20226;-81
2022/11/19 03:04:28;;;;;;;20.95;14.70;;;-0.50;99.90;;;;;;5009435;28;20238;-77
2022/11/19 03:07:01;;;;;;;20.75;14.80;;;-0.50;99.90;;;;;;5003097;28;20383;-79
2022/11/19 03:09:30;;;;;;;21.02;14.85;;;-0.50;99.90;;;;;;5009356;28;20238;-81
2022/11/19 03:12:23;;;;;;;18.20;12.63;;;-0.50;99.90;;;;;;5003943;28;20575;-82
2022/11/19 03:17:52;;;;;;;18.23;12.93;;;-0.40;99.90;;;;;;5001577;28;20542;-81
2022/11/19 03:20:31;;;;;;;17.90;15.35;;;-0.30;99.90;;;;;;5003718;28;20295;-83
2022/11/19 03:23:10;;;;;;;20.55;14.85;;;-0.30;99.90;;;;;;5001078;28;20213;-82
2022/11/19 03:25:43;;;;;;;14.73;12.35;;;-0.40;99.90;;;;;;4985775;28;20222;-82
2022/11/19 03:28:17;;;;;;;21.58;13.98;;;-0.40;99.90;;;;;;4984437;28;20214;-81
2022/11/19 03:30:48;;;;;;;19.42;13.32;;;-0.40;99.90;;;;;;5007972;28;20217;-80
2022/11/19 03:33:22;;;;;;;19.60;14.30;;;-0.40;99.90;;;;;;5012376;28;20210;-80
2022/11/19 03:35:53;;;;;;;20.73;13.90;;;-0.40;99.90;;;;;;4992764;28;20236;-80
2022/11/19 03:38:46;;;;;;;16.55;12.73;;;-0.40;99.90;;;;;;5013126;28;20202;-80
2022/11/19 03:41:17;;;;;;;15.18;10.77;;;-0.40;99.90;;;;;;4980735;28;20413;-83
2022/11/19 03:43:52;;;;;;;13.85;8.45;;;-0.30;99.90;;;;;;5010803;28;20235;-80
2022/11/19 03:46:21;;;;;;;7.70;6.70;;;-0.30;99.90;;;;;;5000215;28;20241;-80
2022/11/19 03:48:54;;;;;;;12.95;6.63;;;-0.40;99.90;;;;;;5001207;28;20410;-80
2022/11/19 03:51:34;;;;;;;10.57;8.98;;;-0.30;99.90;;;;;;4984921;28;20378;-80
2022/11/19 03:54:01;;;;;;;13.02;9.90;;;-0.10;99.90;;;;;;5003008;28;20233;-78
2022/11/19 03:56:35;;;;;;;12.57;9.35;;;0.00;99.90;;;;;;5001382;28;20319;-80
2022/11/19 03:59:04;;;;;;;8.55;7.50;;;-0.10;99.90;;;;;;5011588;28;20285;-81
2022/11/19 04:01:35;;;;;;;11.50;8.52;;;-0.20;99.90;;;;;;5001389;28;20209;-81
2022/11/19 04:06:51;;;;;;;15.48;9.20;;;-0.50;99.90;;;;;;4995822;28;20202;-78
2022/11/19 04:09:19;;;;;;;13.45;9.82;;;-0.80;99.90;;;;;;4989482;28;20251;-81
2022/11/19 04:11:47;;;;;;;13.02;10.05;;;-0.90;99.90;;;;;;5007514;28;20240;-82
2022/11/19 04:14:13;;;;;;;14.10;10.38;;;-1.00;99.90;;;;;;5011138;28;20236;-79
2022/11/19 04:16:41;;;;;;;15.00;10.57;;;-0.90;99.90;;;;;;4992956;28;20265;-81
2022/11/19 04:19:07;;;;;;;15.75;9.60;;;-0.60;99.90;;;;;;5028488;28;20205;-84
2022/11/19 04:21:34;;;;;;;13.63;10.45;;;-0.80;99.90;;;;;;5024676;28;20214;-81
2022/11/19 04:24:01;;;;;;;13.77;10.00;;;-0.80;99.90;;;;;;5017833;28;20202;-79
2022/11/19 04:26:28;;;;;;;13.98;10.23;;;-0.80;99.90;;;;;;5013925;28;20345;-80
2022/11/19 04:28:55;;;;;;;15.70;11.75;;;-0.90;99.90;;;;;;5002630;28;20453;-78
2022/11/19 04:31:26;;;;;;;16.48;10.73;;;-1.00;99.90;;;;;;5008507;28;20304;-79
2022/11/19 04:33:55;;;;;;;18.30;12.70;;;-1.20;99.90;;;;;;5008605;28;20210;-80
2022/11/19 04:36:22;;;;;;;13.45;10.68;;;-1.30;99.90;;;;;;5006635;28;20781;-79
2022/11/19 04:38:49;;;;;;;17.38;11.95;;;-1.40;99.90;;;;;;4990070;28;20198;-79
2022/11/19 04:41:18;;;;;;;16.45;12.18;;;-1.30;99.90;;;;;;4986500;28;20712;-80
2022/11/19 04:43:46;;;;;;;16.75;10.90;;;-1.20;99.90;;;;;;5004471;28;20235;-80
2022/11/19 04:46:16;;;;;;;24.25;14.60;;;-1.50;99.90;;;;;;4993178;28;20253;-80
2022/11/19 04:48:43;;;;;;;21.27;14.40;;;-1.30;99.90;;;;;;5012491;28;20212;-81
2022/11/19 04:51:11;;;;;;;21.58;15.20;;;-1.70;99.90;;;;;;5008874;28;20205;-77
2022/11/19 04:53:42;;;;;;;18.15;11.98;;;-1.90;99.90;;;;;;5011440;28;20206;-79
2022/11/19 04:56:11;;;;;;;19.02;13.80;;;-1.90;99.90;;;;;;5011552;28;20536;-82
2022/11/19 04:58:39;;;;;;;17.73;13.70;;;-2.00;99.90;;;;;;5005258;28;20211;-80
2022/11/19 05:01:06;;;;;;;23.00;14.27;;;-2.10;99.90;;;;;;5004868;28;20274;-80
2022/11/19 05:03:33;;;;;;;22.15;13.98;;;-2.10;99.90;;;;;;5004277;28;20210;-80
2022/11/19 05:06:01;;;;;;;21.00;13.52;;;-1.80;99.90;;;;;;5007093;28;20601;-78
2022/11/19 05:08:30;;;;;;;17.70;13.18;;;-1.90;99.90;;;;;;4993090;28;20209;-80
2022/11/19 05:10:57;;;;;;;18.98;15.23;;;-2.00;99.90;;;;;;5005002;28;20209;-82
2022/11/19 05:13:24;;;;;;;21.05;13.77;;;-2.00;99.90;;;;;;4994314;28;20217;-81
2022/11/19 05:15:51;;;;;;;20.73;12.80;;;-2.10;99.90;;;;;;5010866;28;20480;-81
2022/11/19 05:18:20;;;;;;;29.63;17.10;;;-2.20;99.90;;;;;;4993211;28;20210;-81
2022/11/19 05:20:47;;;;;;;21.90;14.38;;;-2.00;99.90;;;;;;4988104;28;20210;-81
2022/11/19 05:23:14;;;;;;;26.33;15.77;;;-2.10;99.90;;;;;;5007656;28;20209;-80
2022/11/19 05:25:42;;;;;;;21.98;16.40;;;-2.10;99.90;;;;;;5008593;28;20294;-80
2022/11/19 05:28:09;;;;;;;28.60;16.50;;;-2.00;99.90;;;;;;5009566;28;20265;-83
2022/11/19 05:30:36;;;;;;;24.33;16.20;;;-2.10;99.90;;;;;;5012979;28;20218;-82
2022/11/19 05:33:04;;;;;;;19.05;13.45;;;-2.20;99.90;;;;;;4999525;28;20256;-82
2022/11/19 05:35:31;;;;;;;24.30;15.43;;;-2.30;99.90;;;;;;5006413;28;20214;-80
2022/11/19 05:37:58;;;;;;;26.58;18.00;;;-2.30;99.90;;;;;;5008107;28;20214;-84
2022/11/19 05:40:25;;;;;;;28.85;16.48;;;-2.30;99.90;;;;;;5007482;28;20266;-81
2022/11/19 05:42:55;;;;;;;25.52;16.45;;;-2.50;99.90;;;;;;5014492;28;20423;-81
2022/11/19 05:45:22;;;;;;;27.65;16.23;;;-2.60;99.90;;;;;;5003190;28;20253;-81
2022/11/19 05:47:53;;;;;;;23.88;17.30;;;-2.60;99.90;;;;;;5002570;28;20205;-81
2022/11/19 05:50:21;;;;;;;34.13;18.13;;;-2.50;99.90;;;;;;5006241;28;20257;-81
2022/11/19 05:52:47;;;;;;;27.08;17.80;;;-2.40;99.90;;;;;;5006456;28;20214;-80
2022/11/19 05:55:15;;;;;;;28.45;17.52;;;-2.50;99.90;;;;;;5004143;28;20297;-84
2022/11/19 05:57:43;;;;;;;28.98;18.63;;;-2.40;99.90;;;;;;5002389;28;20214;-81
2022/11/19 06:00:11;;;;;;;26.10;17.15;;;-2.50;99.90;;;;;;5005885;28;20262;-81
2022/11/19 06:02:38;;;;;;;28.45;18.33;;;-2.40;99.90;;;;;;5005724;28;20389;-82
2022/11/19 06:05:07;;;;;;;31.20;18.38;;;-2.30;99.90;;;;;;5012868;28;20241;-81
2022/11/19 06:07:33;;;;;;;29.38;16.20;;;-2.40;99.90;;;;;;5005070;28;20411;-82
2022/11/19 06:10:01;;;;;;;21.73;16.05;;;-2.30;99.90;;;;;;4994534;28;20255;-86
2022/11/19 06:12:31;;;;;;;33.53;18.63;;;-2.30;99.90;;;;;;5006220;28;20210;-81
2022/11/19 06:15:00;;;;;;;30.90;18.85;;;-2.40;99.90;;;;;;5007169;28;20195;-82
2022/11/19 06:17:28;;;;;;;23.60;17.25;;;-2.50;99.90;;;;;;5003467;28;20244;-81
2022/11/19 06:19:55;;;;;;;30.35;18.23;;;-2.40;99.90;;;;;;5001818;28;20487;-81
2022/11/19 06:22:22;;;;;;;36.35;18.70;;;-2.40;99.90;;;;;;4984624;28;20233;-79
2022/11/19 06:24:49;;;;;;;36.50;19.50;;;-2.70;99.90;;;;;;4999386;28;20501;-79
2022/11/19 06:27:16;;;;;;;28.67;19.65;;;-2.80;99.90;;;;;;5009385;28;20230;-79
2022/11/19 06:29:44;;;;;;;33.10;19.52;;;-2.70;99.90;;;;;;5004327;28;20692;-78
2022/11/19 06:32:19;;;;;;;25.92;19.45;;;-2.60;99.90;;;;;;5001963;28;20202;-80
2022/11/19 06:34:46;;;;;;;28.30;18.33;;;-2.50;99.90;;;;;;5012021;28;20240;-80
2022/11/19 06:37:14;;;;;;;38.80;23.02;;;-2.40;99.90;;;;;;5002584;28;20277;-82
2022/11/19 06:39:42;;;;;;;30.60;18.88;;;-2.30;99.90;;;;;;4987236;28;20742;-80
2022/11/19 06:45:06;;;;;;;37.05;21.48;;;-2.40;99.90;;;;;;5009496;28;20206;-81
2022/11/19 06:47:50;;;;;;;30.90;20.92;;;-2.50;99.90;;;;;;4997601;28;20261;-81
2022/11/19 06:50:17;;;;;;;34.50;21.17;;;-2.50;99.90;;;;;;5004044;28;20206;-83
2022/11/19 06:52:47;;;;;;;33.78;19.17;;;-2.30;99.90;;;;;;4992031;28;20242;-78
2022/11/19 06:55:14;;;;;;;36.75;21.48;;;-2.20;99.90;;;;;;5003997;28;20550;-80
2022/11/19 06:57:41;;;;;;;29.00;20.17;;;-2.20;99.90;;;;;;4992145;28;20277;-81
2022/11/19 07:00:15;;;;;;;38.78;21.75;;;-2.10;99.90;;;;;;5017254;28;20250;-78
2022/11/19 07:02:46;;;;;;;37.30;22.23;;;-2.10;99.90;;;;;;5007702;28;20249;-78
2022/11/19 07:05:13;;;;;;;28.48;19.63;;;-2.00;99.90;;;;;;5003800;28;20219;-78
2022/11/19 07:07:42;;;;;;;33.17;21.55;;;-2.00;99.90;;;;;;4989640;28;20206;-80
2022/11/19 07:10:09;;;;;;;33.15;23.10;;;-1.90;99.90;;;;;;5014275;28;20199;-78
2022/11/19 07:12:43;;;;;;;36.78;20.52;;;-1.80;99.90;;;;;;5011960;28;20217;-79
2022/11/19 07:15:10;;;;;;;31.27;20.23;;;-1.70;99.90;;;;;;4994689;28;20418;-78
2022/11/19 07:17:38;;;;;;;30.80;20.40;;;-1.50;99.90;;;;;;5015155;28;20490;-80
2022/11/19 07:20:06;;;;;;;33.72;22.33;;;-1.50;99.90;;;;;;5012337;28;20499;-80
2022/11/19 07:22:34;;;;;;;39.63;25.35;;;-1.40;99.90;;;;;;5005252;28;20262;-78
2022/11/19 07:25:01;;;;;;;42.25;24.73;;;-1.40;99.90;;;;;;4995880;28;20197;-79
2022/11/19 07:27:28;;;;;;;37.38;23.98;;;-1.00;99.90;;;;;;4987450;28;20229;-79
2022/11/19 07:29:54;;;;;;;32.00;21.55;;;-0.60;99.90;;;;;;5008572;28;20410;-79
2022/11/19 07:32:22;;;;;;;25.40;18.88;;;0.30;99.90;;;;;;5004488;28;20198;-79
2022/11/19 07:34:50;;;;;;;24.60;18.60;;;0.50;99.90;;;;;;4980558;28;20202;-79
2022/11/19 07:37:17;;;;;;;23.58;17.13;;;1.50;99.90;;;;;;5011728;28;20201;-79
2022/11/19 07:39:45;;;;;;;23.77;17.20;;;2.50;99.90;;;;;;5004544;28;20210;-80
2022/11/19 07:44:58;;;;;;;28.83;16.65;;;2.80;99.90;;;;;;5003257;28;20190;-82
2022/11/19 07:47:25;;;;;;;25.10;15.82;;;2.30;99.90;;;;;;5006083;28;20222;-80
2022/11/19 07:49:56;;;;;;;27.08;17.17;;;2.10;99.90;;;;;;5009771;28;20209;-80
2022/11/19 07:52:24;;;;;;;20.75;17.63;;;1.70;99.90;;;;;;5015074;28;20203;-81
2022/11/19 07:54:51;;;;;;;24.75;18.17;;;1.20;99.90;;;;;;5008297;28;20222;-81
2022/11/19 07:57:20;;;;;;;26.30;19.85;;;0.90;99.90;;;;;;5007747;28;20218;-80
2022/11/19 08:00:02;;;;;;;23.83;18.67;;;0.90;99.90;;;;;;4993193;28;20273;-81
2022/11/19 08:02:30;;;;;;;32.25;20.83;;;0.70;99.90;;;;;;5008290;28;20202;-81
2022/11/19 08:04:58;;;;;;;47.25;24.17;;;0.70;99.90;;;;;;5009716;28;20210;-81
2022/11/19 08:07:25;;;;;;;43.42;26.60;;;0.30;99.90;;;;;;5009714;28;20229;-81
2022/11/19 08:09:52;;;;;;;48.03;28.67;;;0.50;99.90;;;;;;5008496;28;20194;-81
2022/11/19 08:12:22;;;;;;;38.13;26.35;;;0.80;99.90;;;;;;5010714;28;20262;-79
2022/11/19 08:14:50;;;;;;;43.95;25.63;;;0.90;99.90;;;;;;5009415;28;20210;-80
2022/11/19 08:20:05;;;;;;;34.50;22.05;;;0.60;99.90;;;;;;5012067;28;20194;-80
2022/11/19 08:22:45;;;;;;;38.45;23.33;;;0.70;99.90;;;;;;5016638;28;20194;-80
2022/11/19 08:25:12;;;;;;;28.35;19.60;;;0.70;99.90;;;;;;5024612;28;20237;-80
2022/11/19 08:27:40;;;;;;;39.17;21.70;;;0.80;99.90;;;;;;5025752;28;20253;-80
2022/11/19 08:30:31;;;;;;;27.95;18.73;;;0.70;99.90;;;;;;5010915;28;20221;-78
2022/11/19 08:33:03;;;;;;;28.40;18.77;;;0.70;99.90;;;;;;4999596;28;20226;-80
2022/11/19 08:35:31;;;;;;;28.45;20.70;;;0.90;99.90;;;;;;5006754;28;20257;-79
2022/11/19 08:37:58;;;;;;;25.40;18.23;;;1.30;99.90;;;;;;4999927;28;20247;-79
2022/11/19 08:40:26;;;;;;;25.10;18.38;;;2.00;99.90;;;;;;4987398;28;20226;-81
2022/11/19 08:42:58;;;;;;;28.75;19.10;;;2.80;99.90;;;;;;5007876;28;20207;-81
2022/11/19 08:45:32;;;;;;;21.95;17.70;;;3.20;99.90;;;;;;5010991;28;20194;-86
2022/11/19 08:48:02;;;;;;;28.38;20.40;;;3.30;99.90;;;;;;4988741;28;20506;-80
2022/11/19 08:50:30;;;;;;;24.30;19.45;;;3.60;99.90;;;;;;5001988;28;20218;-81
2022/11/19 08:52:59;;;;;;;25.73;19.05;;;3.40;99.90;;;;;;5009397;28;20205;-80
2022/11/19 08:55:29;;;;;;;29.83;18.20;;;3.10;99.90;;;;;;4987701;28;20206;-80
2022/11/19 08:58:04;;;;;;;31.20;19.73;;;2.80;99.90;;;;;;5005025;28;20203;-79
2022/11/19 09:00:34;;;;;;;31.25;20.52;;;2.60;99.90;;;;;;5006366;28;20549;-80
2022/11/19 09:03:01;;;;;;;30.58;21.75;;;2.30;99.90;;;;;;5007777;28;20202;-83
2022/11/19 09:05:27;;;;;;;28.08;21.42;;;2.20;99.90;;;;;;5012408;28;20198;-80
2022/11/19 09:07:55;;;;;;;29.27;19.65;;;1.90;99.90;;;;;;5006520;28;20443;-81
2022/11/19 09:10:22;;;;;;;30.67;20.77;;;1.70;99.90;;;;;;5004868;28;20226;-79
2022/11/19 09:12:49;;;;;;;38.60;23.27;;;1.60;99.90;;;;;;5006092;28;20203;-81
2022/11/19 09:15:16;;;;;;;37.05;23.13;;;1.70;99.90;;;;;;5011644;28;20244;-80
2022/11/19 09:17:43;;;;;;;35.10;23.67;;;1.80;99.90;;;;;;4996219;28;20210;-80
2022/11/19 09:20:13;;;;;;;28.60;21.52;;;1.80;99.90;;;;;;5007096;28;20201;-79
2022/11/19 09:22:39;;;;;;;32.00;22.52;;;1.50;99.90;;;;;;5004597;28;20506;-79
2022/11/19 09:25:07;;;;;;;31.45;21.77;;;1.30;99.90;;;;;;4989372;28;20205;-81
2022/11/19 09:27:35;;;;;;;27.42;20.75;;;1.30;99.90;;;;;;5010389;28;20517;-80
2022/11/19 09:30:05;;;;;;;27.25;20.38;;;1.20;99.90;;;;;;5001084;28;20206;-83
2022/11/19 09:32:33;;;;;;;24.55;20.85;;;1.00;99.90;;;;;;5003538;28;20204;-79
2022/11/19 09:35:00;;;;;;;28.50;21.00;;;1.00;99.90;;;;;;4995800;28;20203;-82
2022/11/19 09:37:30;;;;;;;29.73;21.95;;;1.20;99.90;;;;;;5001992;28;20206;-81
2022/11/19 09:39:57;;;;;;;23.15;18.33;;;1.40;99.90;;;;;;5002233;28;20233;-79
2022/11/19 09:43:00;;;;;;;21.90;15.43;;;1.40;99.90;;;;;;5004902;28;20257;-79
2022/11/19 09:46:00;;;;;;;20.90;15.65;;;1.40;99.90;;;;;;5006066;28;20216;-80
2022/11/19 09:48:34;;;;;;;21.77;16.42;;;1.30;99.90;;;;;;5005152;28;20553;-79
2022/11/19 09:51:08;;;;;;;24.45;17.75;;;1.20;99.90;;;;;;5004135;28;20198;-79
2022/11/19 09:53:54;;;;;;;30.13;18.02;;;1.30;99.90;;;;;;5007465;28;20205;-79
2022/11/19 09:56:26;;;;;;;20.92;14.85;;;1.30;99.90;;;;;;5009060;28;20214;-80
2022/11/19 09:58:56;;;;;;;24.92;16.58;;;1.30;99.90;;;;;;5007107;28;20194;-79
2022/11/19 10:01:24;;;;;;;24.60;18.20;;;1.50;99.90;;;;;;5009155;28;20513;-80
2022/11/19 10:03:53;;;;;;;27.33;18.23;;;1.80;99.90;;;;;;5018347;28;20190;-78
2022/11/19 10:06:44;;;;;;;26.45;18.50;;;1.80;99.90;;;;;;5011608;28;20762;-79
2022/11/19 10:09:27;;;;;;;25.88;18.13;;;1.70;99.90;;;;;;5004445;28;20522;-79
2022/11/19 10:12:10;;;;;;;33.25;20.55;;;1.70;99.90;;;;;;5002808;28;20206;-80
2022/11/19 10:15:01;;;;;;;36.25;16.90;;;1.60;99.90;;;;;;4999184;28;20495;-80
2022/11/19 10:18:03;;;;;;;23.50;16.73;;;1.90;99.90;;;;;;5011356;28;20232;-80
2022/11/19 10:21:09;;;;;;;28.67;17.50;;;2.20;99.90;;;;;;4999552;28;20237;-80
2022/11/19 10:23:42;;;;;;;22.65;17.23;;;2.30;99.90;;;;;;5006165;28;20242;-80
2022/11/19 10:26:15;;;;;;;27.15;17.95;;;2.30;99.90;;;;;;4989794;28;20194;-80
2022/11/19 10:29:14;;;;;;;19.83;16.33;;;2.40;99.90;;;;;;4988448;28;20206;-79
2022/11/19 10:31:49;;;;;;;22.75;15.27;;;2.70;99.90;;;;;;4996234;28;20246;-81
2022/11/19 10:34:41;;;;;;;17.30;14.27;;;2.90;99.90;;;;;;5009512;28;20213;-79
2022/11/19 10:37:17;;;;;;;24.92;16.52;;;3.00;99.90;;;;;;5012104;28;20287;-80
2022/11/19 10:40:05;;;;;;;23.98;15.02;;;3.10;99.90;;;;;;4980862;28;20221;-79
2022/11/19 10:42:39;;;;;;;23.30;14.50;;;3.10;99.90;;;;;;5012778;28;20203;-79
2022/11/19 10:45:26;;;;;;;21.05;14.43;;;3.00;99.90;;;;;;5011681;28;20358;-80
2022/11/19 10:48:06;;;;;;;21.88;15.73;;;3.00;99.90;;;;;;5005353;28;20277;-78
2022/11/19 10:50:35;;;;;;;22.60;13.18;;;2.90;99.90;;;;;;5011441;28;20202;-79
2022/11/19 10:53:32;;;;;;;21.35;13.02;;;2.70;99.90;;;;;;5018924;28;20217;-78
2022/11/19 10:56:21;;;;;;;17.45;13.23;;;2.70;99.90;;;;;;4987359;28;20201;-80
2022/11/19 10:59:00;;;;;;;20.65;12.95;;;2.70;99.90;;;;;;4994463;28;20437;-77
2022/11/19 11:01:35;;;;;;;23.73;16.02;;;2.80;99.90;;;;;;4985115;28;20398;-76
2022/11/19 11:04:16;;;;;;;19.27;12.63;;;2.70;99.90;;;;;;5003892;28;20265;-80
2022/11/19 11:06:59;;;;;;;21.17;13.43;;;3.00;99.90;;;;;;5006664;28;20226;-79
2022/11/19 11:09:30;;;;;;;23.85;14.20;;;3.10;99.90;;;;;;5006810;28;20463;-80
2022/11/19 11:14:54;;;;;;;20.73;13.40;;;3.20;99.90;;;;;;5008596;28;20194;-80
2022/11/19 11:17:27;;;;;;;18.65;12.88;;;3.20;99.90;;;;;;5004569;28;20227;-81
2022/11/19 11:20:15;;;;;;;13.60;10.63;;;3.20;99.90;;;;;;5000786;28;20494;-79
2022/11/19 11:22:48;;;;;;;13.90;11.77;;;2.70;99.90;;;;;;5004265;28;20214;-80
2022/11/19 11:25:27;;;;;;;13.60;10.48;;;2.40;99.90;;;;;;5002623;28;20202;-78
2022/11/19 11:28:17;;;;;;;16.13;11.00;;;2.30;99.90;;;;;;5004726;28;20269;-77
2022/11/19 11:31:08;;;;;;;10.35;8.70;;;2.00;99.90;;;;;;4988028;28;20245;-78
2022/11/19 11:33:37;;;;;;;13.13;10.65;;;1.80;99.90;;;;;;5006115;28;20413;-79
2022/11/19 11:36:18;;;;;;;11.73;10.45;;;1.60;99.90;;;;;;5003572;28;20199;-78
2022/11/19 11:38:47;;;;;;;14.60;10.57;;;1.70;99.90;;;;;;5003829;28;20226;-80
2022/11/19 11:41:18;;;;;;;10.23;7.72;;;2.00;99.90;;;;;;5003019;28;20265;-81
2022/11/19 11:44:21;;;;;;;11.10;8.40;;;2.10;99.90;;;;;;5001142;28;20462;-80
2022/11/19 11:46:59;;;;;;;11.82;9.80;;;2.00;99.90;;;;;;5003165;28;20402;-79
2022/11/19 11:49:31;;;;;;;15.55;10.02;;;2.00;99.90;;;;;;4999786;28;20265;-78
2022/11/19 11:52:14;;;;;;;13.73;11.95;;;2.00;99.90;;;;;;5002947;28;20206;-81
2022/11/19 11:54:57;;;;;;;18.67;11.50;;;1.60;99.90;;;;;;5006005;28;20245;-79
2022/11/19 11:57:48;;;;;;;13.60;9.52;;;1.60;99.90;;;;;;5000318;28;20198;-81
2022/11/19 12:00:38;;;;;;;8.30;6.82;;;1.60;99.90;;;;;;4994497;28;20210;-81
2022/11/19 12:03:31;;;;;;;7.72;6.70;;;1.80;99.90;;;;;;5021255;28;20224;-80
2022/11/19 12:07:03;;;;;;;11.48;7.63;;;1.80;99.90;;;;;;4996270;28;20190;-80
2022/11/19 12:10:20;;;;;;;6.70;5.70;;;2.00;99.90;;;;;;4996312;28;20198;-78
2022/11/19 12:12:53;;;;;;;12.20;8.82;;;2.20;99.90;;;;;;5004182;28;20219;-80
2022/11/19 12:15:47;;;;;;;11.93;9.40;;;2.30;99.90;;;;;;4993171;28;20260;-82
2022/11/19 12:18:38;;;;;;;13.30;11.27;;;2.50;99.90;;;;;;4991801;28;20202;-82
2022/11/19 12:21:16;;;;;;;12.15;10.63;;;2.50;99.90;;;;;;4989662;28;20363;-82
2022/11/19 12:24:02;;;;;;;11.40;9.65;;;2.40;99.90;;;;;;4989166;28;20198;-80
2022/11/19 12:26:43;;;;;;;17.80;11.15;;;2.60;99.90;;;;;;5011359;28;20458;-80
2022/11/19 12:29:45;;;;;;;15.82;9.98;;;2.40;99.90;;;;;;5002145;28;20256;-81
2022/11/19 12:32:16;;;;;;;19.75;9.95;;;2.30;99.90;;;;;;5000473;28;20229;-79
2022/11/19 12:34:46;;;;;;;13.90;10.45;;;2.10;99.90;;;;;;5011792;28;20206;-79
2022/11/19 12:37:48;;;;;;;12.93;9.48;;;1.70;99.90;;;;;;5005770;28;20265;-80
2022/11/19 12:40:27;;;;;;;11.93;8.48;;;1.80;99.90;;;;;;4994938;28;20209;-80
2022/11/19 12:43:15;;;;;;;14.43;8.77;;;1.90;99.90;;;;;;5001221;28;20206;-79
2022/11/19 12:45:53;;;;;;;10.95;8.20;;;1.80;99.90;;;;;;5012694;28;20260;-81
2022/11/19 12:48:41;;;;;;;11.82;8.73;;;1.80;99.90;;;;;;5008527;28;20214;-80
2022/11/19 12:51:20;;;;;;;12.98;8.50;;;1.60;99.90;;;;;;5010349;28;20482;-79
2022/11/19 12:54:03;;;;;;;12.65;8.52;;;1.40;99.90;;;;;;5011761;28;20190;-79
2022/11/19 12:56:48;;;;;;;12.82;10.35;;;1.30;99.90;;;;;;5012124;28;20202;-80
2022/11/19 12:59:48;;;;;;;25.75;10.60;;;1.00;99.90;;;;;;5007073;28;20199;-80
2022/11/19 13:02:31;;;;;;;12.30;10.55;;;1.10;99.90;;;;;;5013080;28;20218;-83
2022/11/19 13:05:06;;;;;;;14.90;9.75;;;1.20;99.90;;;;;;5010617;28;20194;-82
2022/11/19 13:07:40;;;;;;;15.75;10.55;;;1.20;99.90;;;;;;5027573;28;20209;-84
2022/11/19 13:10:19;;;;;;;14.13;9.85;;;1.30;99.90;;;;;;5012292;28;20485;-80
2022/11/19 13:12:50;;;;;;;13.90;9.63;;;1.40;99.90;;;;;;4980420;28;20226;-81
2022/11/19 13:15:27;;;;;;;14.00;10.13;;;1.40;99.90;;;;;;4992103;28;20256;-81
2022/11/19 13:17:57;;;;;;;16.13;12.25;;;1.20;99.90;;;;;;4987204;28;20237;-84
2022/11/19 13:20:54;;;;;;;15.25;11.18;;;1.00;99.90;;;;;;4990146;28;20194;-77
2022/11/19 13:23:36;;;;;;;22.25;14.00;;;0.90;99.90;;;;;;5001364;28;20210;-81
2022/11/19 13:26:22;;;;;;;15.45;10.82;;;1.10;99.90;;;;;;5005102;28;20198;-83
2022/11/19 13:28:57;;;;;;;22.85;11.57;;;0.90;99.90;;;;;;5003580;28;20216;-81
2022/11/19 13:31:43;;;;;;;17.42;13.00;;;0.80;99.90;;;;;;5004234;28;20226;-80
2022/11/19 13:34:24;;;;;;;12.55;10.35;;;0.80;99.90;;;;;;5002389;28;20198;-79
2022/11/19 13:37:00;;;;;;;16.17;11.20;;;0.70;99.90;;;;;;4986769;28;20206;-80